CheckWX is a tool to help pilots better visualize weather data.  It is not intended as a substitute for an official pre-flight weather briefing.

12:25:20 UTC

KAUH METAR
Aurora Municipal - Al Potter Field Airport
Aurora, Nebraska, USA
Current

30 mins ago

KAUH 181155Z AUTO 32008KT 10SM CLR M18/M20 A3034 RMK AO2 T11771202 11138 21177
Observed
Feb-18 @ 11:55 UTC
Wind
  • 320° at 8 KTS
Visibility
10 SM
Flight Rules
VFR
Cloud Levels
  • Clear skies
Temperature
-18°C / -0°F
Dewpoint
-20°C / -4°F
Humidity
84%
Altimeter
30.34" Hg
Pressure
1027.42 hPa
Previous

50 mins ago

KAUH 181135Z AUTO 30007KT 10SM CLR M17/M19 A3034 RMK AO2 T11711195
Observed
Feb-18 @ 11:35 UTC
Wind
  • 300° at 7 KTS
Visibility
10 SM
Flight Rules
VFR
Cloud Levels
  • Clear skies
Temperature
-17°C / 1°F
Dewpoint
-20°C / -4°F
Humidity
78%
Altimeter
30.34" Hg
Pressure
1027.42 hPa
Previous

1 hour ago

KAUH 181115Z AUTO 31008KT 10SM CLR M17/M19 A3032 RMK AO2 T11661191
Observed
Feb-18 @ 11:15 UTC
Wind
  • 310° at 8 KTS
Visibility
10 SM
Flight Rules
VFR
Cloud Levels
  • Clear skies
Temperature
-17°C / 1°F
Dewpoint
-19°C / -2°F
Humidity
85%
Altimeter
30.32" Hg
Pressure
1026.72 hPa